Deerfield, WI

6:37 PM CDT on July 31, 2015 (GMT -0500)
Cambridge | | Change Station
CLOSE
Current Station
Personal Weather Station
Location: Cambridge, WI
Elevation: 883 ft
Nearby Weather Stations

Elev 883 ft 43.00 °N, 89.01 °W | Updated 3 seconds ago

Clear
Clear
79.0 °F
Feels Like 79 °F
N
1.8
Wind Variable Wind from NW

Today
High -- | Low -- °F
--% Chance of Precip.
Yesterday
High -- | Low -- °F
Precip. -- in
5:45 AM 8:19 PM
Full, 100% visible
Pressure 29.94 in
Visibility 10.0 miles
Clouds Few 7000 ft
Heat Index 79 °F
Dew Point 53 °F
Humidity 40%
Rainfall -999.00 in
Snow Depth Not available.
UV 2 out of 12
Pollen 7.40 out of 12
Air Quality Not available.
Flu Activity Not available.
METAR KMSN 312253Z 32009G17KT 10SM FEW070 27/11 A2995 RMK AO2 SLP138 T02670106

More Conditions Fewer Conditions

Pressure 29.94 in
Visibility 10.0 miles
Clouds Few 7000 ft
Heat Index 79 °F
Dew Point 53 °F
Humidity 40%
Rainfall -999.00 in
Snow Depth Not available.
UV 2 out of 12
Pollen 7.40 out of 12
Air Quality Not available.
Flu Activity Not available.
METAR KMSN 312253Z 32009G17KT 10SM FEW070 27/11 A2995 RMK AO2 SLP138 T02670106

More Conditions Fewer Conditions

10-Day Weather Forecast

×

Almanac

Astronomy

Jul. 31, 2015 Rise Set
Actual Time
Civil Twilight
Nautical Twilight
Astronomical Twilight
Moon
Length of Visible Light
Length of Day
Tomorrow will be .
, % of the Moon is Illuminated

Today's Extremes

State Highs State Lows

Community

WunderPhotos

Upload Photos

1,842,767 photos uploaded!

WunderBlogs® & News

Nearby

Air Quality

  Air Quality AQ Index Pollutant
Not available.

Snow Depth

Station Depth Elevation

Earthquake Activity

City Distance Mag. Time & Date
Minimum magnitude displayed is 2.5.

Coastal Water Temperatures

Place Temperature

Stations

Nearby Weather Stations

Station Location Temp. Windchill Dew Point Humidity Wind Precip. Elev Updated Type